ADDS METAR Data INFO
IDs: Format: Raw Decoded Include TAF

Data at: 1528 UTC 18 Jun 2018

KCPS 181453Z 26006KT 10SM CLR 31/22 A3007 RMK AO2 SLP177 T03060222 50004
KCPS 181353Z VRB04KT 10SM CLR 29/23 A3007 RMK AO2 SLP179 T02890228
KCPS 181253Z VRB04KT 10SM CLR 27/22 A3007 RMK AO2 SLP178 T02720217
KCPS 181153Z 00000KT 10SM CLR 25/21 A3006 RMK AO2 SLP173 T02500211 10272 20222 53014
KCPS 181053Z AUTO 00000KT 10SM CLR 23/21 A3005 RMK AO2 SLP170 T02280206 $
KCPS 180953Z AUTO 00000KT 10SM CLR 23/21 A3003 RMK AO2 SLP162 T02280206 $
KCPS 180853Z AUTO 00000KT 10SM CLR 24/21 A3002 RMK AO2 SLP159 T02440211 55002 $
KCPS 180753Z AUTO 16004KT 10SM CLR 24/22 A3001 RMK AO2 SLP158 T02440217 $
KCPS 180653Z AUTO 00000KT 10SM CLR 24/22 A3002 RMK AO2 SLP160 T02440217 $
KCPS 180553Z AUTO 00000KT 10SM CLR 27/22 A3002 RMK AO2 SLP162 T02720217 10333 20267 403500222 50006 $
KCPS 180453Z AUTO 16004KT 10SM CLR 28/22 A3002 RMK AO2 SLP162 T02780222 $
KCPS 180353Z AUTO 17005KT 10SM CLR 29/22 A3002 RMK AO2 SLP160 T02890222 $
KCPS 180253Z 17004KT 10SM CLR 29/22 A3000 RMK AO2 SLP155 T02940222 53010 $
KCPS 180153Z 16004KT 10SM CLR 30/22 A2998 RMK AO2 SLP147 T03000222 $
KCPS 180053Z 17005KT 10SM CLR 32/23 A2997 RMK AO2 SLP144 T03170228 $
KCPS 172353Z 18006KT 10SM SCT060 33/23 A2998 RMK AO2 SLP145 T03330228 10350 20317 56011 $
KCPS 172253Z 18006KT 10SM CLR 34/22 A2998 RMK AO2 SLP147 T03390222 $
KCPS 172153Z 17007KT 10SM SCT050 34/23 A3000 RMK AO2 SLP154 T03440228 $
KCPS 172053Z 18009KT 10SM SCT050 34/23 A3001 RMK AO2 SLP157 T03440228 56010 $
KCPS 171953Z 22008G16KT 190V260 10SM CLR 34/22 A3002 RMK AO2 SLP160 T03440217 $
KCPS 171853Z 19009G15KT 10SM CLR 33/22 A3003 RMK AO2 SLP162 T03330222 $
KCPS 171753Z VRB05KT 10SM CLR 32/23 A3004 RMK AO2 SLP167 T03220228 10322 20244 58003 $
KCPS 171653Z 19008KT 10SM CLR 32/22 A3004 RMK AO2 SLP169 T03170222 $
KCPS 171553Z 21007KT 10SM CLR 31/23 A3005 RMK AO2 SLP171 T03060228 $
KCPS 171453Z VRB06KT 10SM CLR 29/22 A3005 RMK AO2 SLP170 T02940222 50003 $
KCPS 171353Z 00000KT 10SM CLR 29/22 A3005 RMK AO2 SLP171 T02890222 $
KCPS 171253Z 18003KT 10SM CLR 26/22 A3005 RMK AO2 SLP171 T02610222 $
KCPS 171153Z 17004KT 10SM CLR 24/22 A3004 RMK AO2 SLP167 T02440217 10272 20222 51017 $
KCPS 171053Z AUTO 16003KT 10SM CLR 23/21 A3002 RMK AO2 SLP161 T02330211 $
KCPS 170953Z AUTO 00000KT 10SM CLR 23/21 A3001 RMK AO2 SLP158 T02330211 $
KCPS 170853Z AUTO 00000KT 10SM CLR 23/21 A2999 RMK AO2 SLP150 T02330211 53003 $
KCPS 170753Z AUTO 21003KT 10SM CLR 25/21 A2997 RMK AO2 SLP144 T02500211 $
KCPS 170653Z AUTO 00000KT 10SM CLR 26/21 A2997 RMK AO2 SLP144 T02560211 $
KCPS 170553Z AUTO 17004KT 10SM CLR 27/21 A2998 RMK AO2 SLP147 T02720211 10333 20267 403500217 50003 $
KCPS 170453Z AUTO 16005KT 10SM CLR 28/22 A2998 RMK AO2 SLP148 T02780217 $
KCPS 170353Z AUTO 15005KT 10SM SCT065 28/22 A2998 RMK AO2 SLP146 T02830217 $